AQQ10 IFIS: Internet Flight Information System
logo dgac
Martes 06 de Diciembre del 2022
Buscar por aerodromo o helipuerto
Ingrese nombre de aeródromo, localidad o designador OACI:
METAR del 06-12-2022 a las 08:00 UTC
Para mayor información visite www.meteochile.cl
METAR SCAT 060800Z AUTO 33007KT 9999 OVC012/// 15/12 Q1014
Viento: dirección 330 grados, velocidad 7 nudos
Visibilidad: 10 km o más
Nubes: Cubierto a 1200 pies sobre el nivel del aeródromo, Tipo de nubes no disponible
Temperatura: 15 °C
Rocío: 12 °C
Humedad_relativa: 82%
Presión: 1014 hPa
METAR del 06-12-2022 a las 06:00 UTC
Para mayor información visite www.meteochile.cl
METAR SCAT 060600Z AUTO 30004KT 250V320 9999 OVC011/// 15/13 Q1013
Viento: dirección 300 grados, velocidad 4 nudos
Viento con dirección variable entre 250 y 320 grados
Visibilidad: 10 km o más
Nubes: Cubierto a 1100 pies sobre el nivel del aeródromo, Tipo de nubes no disponible
Temperatura: 15 °C
Rocío: 13 °C
Humedad_relativa: 88%
Presión: 1013 hPa
METAR del 06-12-2022 a las 04:00 UTC
Para mayor información visite www.meteochile.cl
METAR SCAT 060400Z AUTO 23004KT 9999 OVC012/// 15/12 Q1013
Viento: dirección 230 grados, velocidad 4 nudos
Visibilidad: 10 km o más
Nubes: Cubierto a 1200 pies sobre el nivel del aeródromo, Tipo de nubes no disponible
Temperatura: 15 °C
Rocío: 12 °C
Humedad_relativa: 82%
Presión: 1013 hPa
METAR del 06-12-2022 a las 03:00 UTC
Para mayor información visite www.meteochile.cl
METAR SCAT 060300Z AUTO 27006KT 9999 OVC014/// 16/12 Q1013
Viento: dirección 270 grados, velocidad 6 nudos
Visibilidad: 10 km o más
Nubes: Cubierto a 1400 pies sobre el nivel del aeródromo, Tipo de nubes no disponible
Temperatura: 16 °C
Rocío: 12 °C
Humedad_relativa: 77%
Presión: 1013 hPa
SPECI del 06-12-2022 a las 02:54 UTC
Para mayor información visite www.meteochile.cl
SPECI SCAT 060254Z AUTO 27006KT 9999 OVC014/// 16/12 Q1013
Viento: dirección 270 grados, velocidad 6 nudos
Visibilidad: 10 km o más
Nubes: Cubierto a 1400 pies sobre el nivel del aeródromo, Tipo de nubes no disponible
Temperatura: 16 °C
Rocío: 12 °C
Humedad_relativa: 77%
Presión: 1013 hPa
SPECI del 06-12-2022 a las 02:49 UTC
Para mayor información visite www.meteochile.cl
SPECI SCAT 060249Z AUTO 27006KT 9999 OVC015/// 16/12 Q1013
Viento: dirección 270 grados, velocidad 6 nudos
Visibilidad: 10 km o más
Nubes: Cubierto a 1500 pies sobre el nivel del aeródromo, Tipo de nubes no disponible
Temperatura: 16 °C
Rocío: 12 °C
Humedad_relativa: 77%
Presión: 1013 hPa
METAR del 06-12-2022 a las 02:00 UTC
Para mayor información visite www.meteochile.cl
METAR SCAT 060200Z AUTO 24005KT 210V290 9999 OVC014/// 16/12 Q1013
Viento: dirección 240 grados, velocidad 5 nudos
Viento con dirección variable entre 210 y 290 grados
Visibilidad: 10 km o más
Nubes: Cubierto a 1400 pies sobre el nivel del aeródromo, Tipo de nubes no disponible
Temperatura: 16 °C
Rocío: 12 °C
Humedad_relativa: 77%
Presión: 1013 hPa
SPECI del 06-12-2022 a las 01:27 UTC
Para mayor información visite www.meteochile.cl
SPECI SCAT 060127Z AUTO 22006KT 9999 OVC014/// 16/12 Q1013
Viento: dirección 220 grados, velocidad 6 nudos
Visibilidad: 10 km o más
Nubes: Cubierto a 1400 pies sobre el nivel del aeródromo, Tipo de nubes no disponible
Temperatura: 16 °C
Rocío: 12 °C
Humedad_relativa: 77%
Presión: 1013 hPa
SPECI del 06-12-2022 a las 01:14 UTC
Para mayor información visite www.meteochile.cl
SPECI SCAT 060114Z AUTO 22006KT 9999 OVC015/// 15/12 Q1013
Viento: dirección 220 grados, velocidad 6 nudos
Visibilidad: 10 km o más
Nubes: Cubierto a 1500 pies sobre el nivel del aeródromo, Tipo de nubes no disponible
Temperatura: 15 °C
Rocío: 12 °C
Humedad_relativa: 82%
Presión: 1013 hPa
METAR del 06-12-2022 a las 01:00 UTC
Para mayor información visite www.meteochile.cl
METAR SCAT 060100Z AUTO 24008KT 9999 OVC014/// 16/12 Q1013
Viento: dirección 240 grados, velocidad 8 nudos
Visibilidad: 10 km o más
Nubes: Cubierto a 1400 pies sobre el nivel del aeródromo, Tipo de nubes no disponible
Temperatura: 16 °C
Rocío: 12 °C
Humedad_relativa: 77%
Presión: 1013 hPa